Time;durP1;ratioP1;P1;durP2;ratioP2;P2;SDS_P1;SDS_P2;PMS_P1;PMS_P2;Temp;Humidity;BMP_temperature;BMP_pressure;BME280_temperature;BME280_humidity;BME280_pressure;Samples;Min_cycle;Max_cycle;Signal;HPM_P1;HPM_P2
2022/11/28 00:00:43;;;;;;;;;;;7.50;99.90;;;;;;5070669;28;19912;-70
2022/11/28 00:03:09;;;;;;;;;;;;;;;;;;5072879;28;19913;-70
2022/11/28 00:05:35;;;;;;;;;;;;;;;;;;5070639;28;19908;-70
2022/11/28 00:08:01;;;;;;;;;;;;;;;;;;5069238;28;19923;-70
2022/11/28 00:10:26;;;;;;;;;;;7.60;99.90;;;;;;5070018;28;20201;-70
2022/11/28 00:12:52;;;;;;;;;;;;;;;;;;5061083;28;19999;-70
2022/11/28 00:15:18;;;;;;;;;;;7.60;99.90;;;;;;5071394;28;19919;-70
2022/11/28 00:17:44;;;;;;;;;;;7.50;99.90;;;;;;5071585;28;20373;-70
2022/11/28 00:20:09;;;;;;;;;;;7.60;99.90;;;;;;5070147;28;20277;-70
2022/11/28 00:22:35;;;;;;;;;;;7.60;99.90;;;;;;5067130;28;20362;-70
2022/11/28 00:25:01;;;;;;;;;;;;;;;;;;5068923;28;20023;-70
2022/11/28 00:27:26;;;;;;;;;;;7.60;99.90;;;;;;5066101;28;19909;-70
2022/11/28 00:29:51;;;;;;;;;;;7.70;99.90;;;;;;5068495;28;20678;-70
2022/11/28 00:32:17;;;;;;;;;;;;;;;;;;5064764;28;20247;-70
2022/11/28 00:34:43;;;;;;;;;;;7.70;99.90;;;;;;5075993;28;19931;-70
2022/11/28 00:37:09;;;;;;;;;;;;;;;;;;5064554;28;19921;-69
2022/11/28 00:39:34;;;;;;;;;;;7.60;99.90;;;;;;5060082;28;20009;-70
2022/11/28 00:42:00;;;;;;;;;;;;;;;;;;5065785;28;19912;-70
2022/11/28 00:44:25;;;;;;;;;;;7.70;99.90;;;;;;5071045;28;19916;-70
2022/11/28 00:46:51;;;;;;;;;;;7.70;99.90;;;;;;5069353;28;19996;-70
2022/11/28 00:49:17;;;;;;;;;;;;;;;;;;5070665;28;20337;-70
2022/11/28 00:51:43;;;;;;;;;;;;;;;;;;5069336;28;19935;-70
2022/11/28 00:54:09;;;;;;;;;;;;;;;;;;5070422;28;19909;-70
2022/11/28 00:56:36;;;;;;;;;;;7.80;99.90;;;;;;5069378;28;20393;-70
2022/11/28 00:59:02;;;;;;;;;;;7.80;99.90;;;;;;5070845;28;19962;-70
2022/11/28 01:01:28;;;;;;;;;;;;;;;;;;5069014;28;19921;-70
2022/11/28 01:03:54;;;;;;;;;;;7.90;99.90;;;;;;5075334;28;20011;-70
2022/11/28 01:06:21;;;;;;;;;;;7.90;99.90;;;;;;5069900;28;20255;-71
2022/11/28 01:08:47;;;;;;;;;;;;;;;;;;5070363;28;19908;-70
2022/11/28 01:11:12;;;;;;;;;;;8.00;99.90;;;;;;5068373;28;20258;-70
2022/11/28 01:13:38;;;;;;;;;;;;;;;;;;5074209;28;19958;-70
2022/11/28 01:16:04;;;;;;;;;;;8.20;99.90;;;;;;5058383;28;19992;-70
2022/11/28 01:18:29;;;;;;;;;;;8.20;99.90;;;;;;5060443;28;19921;-70
2022/11/28 01:20:55;;;;;;;;;;;8.20;99.90;;;;;;5057412;28;19954;-70
2022/11/28 01:23:20;;;;;;;;;;;8.30;99.90;;;;;;5061370;28;19913;-70
2022/11/28 01:25:46;;;;;;;;;;;;;;;;;;5064056;28;19916;-70
2022/11/28 01:28:12;;;;;;;;;;;8.20;99.90;;;;;;5068745;28;19912;-70
2022/11/28 01:30:37;;;;;;;;;;;;;;;;;;5059367;28;19909;-70
2022/11/28 01:33:03;;;;;;;;;;;8.30;99.90;;;;;;5084415;28;19912;-70
2022/11/28 01:35:28;;;;;;;;;;;8.30;99.90;;;;;;5060102;28;19909;-70
2022/11/28 01:37:54;;;;;;;;;;;;;;;;;;5061278;28;20011;-70
2022/11/28 01:40:20;;;;;;;;;;;8.30;99.90;;;;;;5052485;28;20412;-70
2022/11/28 01:42:46;;;;;;;;;;;;;;;;;;5069896;28;19915;-70
2022/11/28 01:45:11;;;;;;;;;;;;;;;;;;5069061;28;19975;-70
2022/11/28 01:47:37;;;;;;;;;;;;;;;;;;5069623;28;19970;-70
2022/11/28 01:50:04;;;;;;;;;;;8.40;99.90;;;;;;5070234;28;19991;-70
2022/11/28 01:52:30;;;;;;;;;;;;;;;;;;5070226;28;19908;-70
2022/11/28 01:54:58;;;;;;;;;;;8.40;99.90;;;;;;5069856;28;19923;-70
2022/11/28 01:57:24;;;;;;;;;;;8.50;99.90;;;;;;5070226;28;19959;-70
2022/11/28 01:59:50;;;;;;;;;;;;;;;;;;5069250;28;19908;-70
2022/11/28 02:02:36;;;;;;;;;;;8.50;99.90;;;;;;5073835;28;19912;-70
2022/11/28 02:05:02;;;;;;;;;;;8.50;99.90;;;;;;5073205;28;19924;-71
2022/11/28 02:07:27;;;;;;;;;;;8.40;99.90;;;;;;5070112;28;19912;-71
2022/11/28 02:09:53;;;;;;;;;;;;;;;;;;5069350;28;19943;-71
2022/11/28 02:12:39;;;;;;;;;;;8.40;99.90;;;;;;5070225;28;20007;-71
2022/11/28 02:15:23;;;;;;;;;;;8.40;99.90;;;;;;5047938;28;20008;-71
2022/11/28 02:17:48;;;;;;;;;;;;;;;;;;5069387;28;20422;-71
2022/11/28 02:20:20;;;;;;;;;;;8.40;99.90;;;;;;5071152;28;19925;-71
2022/11/28 02:22:55;;;;;;;;;;;8.40;99.90;;;;;;5051355;28;19921;-71
2022/11/28 02:25:32;;;;;;;;;;;8.40;99.90;;;;;;5070038;28;19908;-71
2022/11/28 02:27:58;;;;;;;;;;;8.40;99.90;;;;;;5068889;28;19919;-71
2022/11/28 02:30:24;;;;;;;;;;;;;;;;;;5070171;28;19912;-71
2022/11/28 02:33:08;;;;;;;;;;;8.40;99.90;;;;;;5072293;28;19913;-71
2022/11/28 02:35:34;;;;;;;;;;;;;;;;;;5069467;28;19999;-71
2022/11/28 02:37:59;;;;;;;;;;;8.30;99.90;;;;;;5068768;28;20011;-71
2022/11/28 02:40:25;;;;;;;;;;;;;;;;;;5056246;28;19974;-71
2022/11/28 02:42:53;;;;;;;;;;;8.20;99.90;;;;;;5068821;28;20425;-71
2022/11/28 02:45:40;;;;;;;;;;;8.20;99.90;;;;;;5069683;28;19908;-71
2022/11/28 02:48:24;;;;;;;;;;;8.20;99.90;;;;;;5069963;28;19916;-72
2022/11/28 02:50:50;;;;;;;;;;;;;;;;;;5056829;28;20399;-72
2022/11/28 02:53:18;;;;;;;;;;;8.20;99.90;;;;;;5069520;28;19916;-71
2022/11/28 02:55:44;;;;;;;;;;;8.20;99.90;;;;;;5069349;28;20649;-71
2022/11/28 02:58:10;;;;;;;;;;;;;;;;;;5069132;28;19917;-71
2022/11/28 03:00:37;;;;;;;;;;;8.20;99.90;;;;;;5069456;28;20281;-71
2022/11/28 03:03:05;;;;;;;;;;;8.20;99.90;;;;;;5080073;28;19972;-71
2022/11/28 03:05:31;;;;;;;;;;;;;;;;;;5069736;28;20205;-71
2022/11/28 03:07:57;;;;;;;;;;;;;;;;;;5068917;28;20376;-71
2022/11/28 03:10:36;;;;;;;;;;;8.20;99.90;;;;;;5069592;28;19908;-71
2022/11/28 03:13:20;;;;;;;;;;;8.20;99.90;;;;;;5072246;28;19940;-71
2022/11/28 03:15:45;;;;;;;;;;;;;;;;;;5072539;28;19916;-71
2022/11/28 03:18:16;;;;;;;;;;;8.20;99.90;;;;;;5066689;28;19916;-71
2022/11/28 03:20:41;;;;;;;;;;;8.20;99.90;;;;;;5066004;28;20005;-71
2022/11/28 03:23:25;;;;;;;;;;;8.20;99.90;;;;;;5072901;28;19948;-71
2022/11/28 03:26:20;;;;;;;;;;;8.20;99.90;;;;;;5072130;28;20065;-72
2022/11/28 03:28:51;;;;;;;;;;;8.20;99.90;;;;;;5058530;28;19916;-71
2022/11/28 03:31:19;;;;;;;;;;;8.30;99.90;;;;;;5072850;28;19908;-71
2022/11/28 03:33:47;;;;;;;;;;;8.20;99.90;;;;;;5083619;28;19912;-71
2022/11/28 03:36:13;;;;;;;;;;;;;;;;;;5079829;28;20006;-72
2022/11/28 03:38:42;;;;;;;;;;;8.30;99.90;;;;;;5071639;28;20027;-71
2022/11/28 03:41:08;;;;;;;;;;;;;;;;;;5059950;28;19916;-71
2022/11/28 03:43:39;;;;;;;;;;;8.30;99.90;;;;;;5071810;28;21249;-70
2022/11/28 03:46:07;;;;;;;;;;;8.20;99.90;;;;;;5072747;28;19958;-71
2022/11/28 03:48:33;;;;;;;;;;;;;;;;;;5072479;28;19909;-71
2022/11/28 03:51:02;;;;;;;;;;;8.30;99.90;;;;;;5063894;28;20603;-70
2022/11/28 03:53:28;;;;;;;;;;;;;;;;;;5069278;28;19935;-71
2022/11/28 03:56:03;;;;;;;;;;;8.30;99.90;;;;;;5067764;28;20176;-71
2022/11/28 03:58:28;;;;;;;;;;;;;;;;;;5064053;28;19917;-71
2022/11/28 04:01:12;;;;;;;;;;;8.30;99.90;;;;;;5071770;28;20293;-71
2022/11/28 04:03:38;;;;;;;;;;;;;;;;;;5071648;28;19909;-71
2022/11/28 04:06:16;;;;;;;;;;;8.30;99.90;;;;;;5073737;28;19913;-71
2022/11/28 04:08:49;;;;;;;;;;;8.30;99.90;;;;;;5071481;28;20284;-71
2022/11/28 04:11:18;;;;;;;;;;;8.20;99.90;;;;;;5071792;28;19943;-70
2022/11/28 04:13:54;;;;;;;;;;;8.30;99.90;;;;;;5071411;28;19910;-71
2022/11/28 04:16:20;;;;;;;;;;;8.20;99.90;;;;;;5072151;28;19912;-71
2022/11/28 04:18:50;;;;;;;;;;;8.30;99.90;;;;;;5071516;28;20275;-70
2022/11/28 04:21:27;;;;;;;;;;;8.30;99.90;;;;;;5072022;28;19909;-74
2022/11/28 04:23:53;;;;;;;;;;;;;;;;;;5070151;28;19999;-71
2022/11/28 04:26:22;;;;;;;;;;;8.30;99.90;;;;;;5071207;28;19954;-71
2022/11/28 04:28:48;;;;;;;;;;;;;;;;;;5071330;28;19984;-71
2022/11/28 04:31:14;;;;;;;;;;;;;;;;;;5071693;28;20001;-70
2022/11/28 04:33:40;;;;;;;;;;;;;;;;;;5071378;28;19915;-71
2022/11/28 04:36:07;;;;;;;;;;;8.30;99.90;;;;;;5083447;28;19957;-70
2022/11/28 04:38:33;;;;;;;;;;;;;;;;;;5078950;28;19938;-71
2022/11/28 04:41:04;;;;;;;;;;;8.30;99.90;;;;;;5058073;28;19912;-71
2022/11/28 04:43:30;;;;;;;;;;;;;;;;;;5071567;28;19939;-71
2022/11/28 04:45:59;;;;;;;;;;;8.30;99.90;;;;;;5071072;28;20377;-73
2022/11/28 04:48:25;;;;;;;;;;;;;;;;;;5071208;28;19958;-73
2022/11/28 04:51:00;;;;;;;;;;;8.30;99.90;;;;;;5070901;28;20722;-71
2022/11/28 04:53:26;;;;;;;;;;;;;;;;;;5070795;28;19908;-71
2022/11/28 04:55:54;;;;;;;;;;;8.30;99.90;;;;;;5070837;28;20269;-71
2022/11/28 04:58:21;;;;;;;;;;;8.30;99.90;;;;;;5071329;28;19917;-71
2022/11/28 05:00:48;;;;;;;;;;;8.20;99.90;;;;;;5070844;28;19908;-71
2022/11/28 05:03:14;;;;;;;;;;;8.30;99.90;;;;;;5071276;28;20022;-71
2022/11/28 05:05:40;;;;;;;;;;;;;;;;;;5070912;28;19908;-71
2022/11/28 05:08:05;;;;;;;;;;;8.30;99.90;;;;;;5070583;28;19931;-71
2022/11/28 05:10:31;;;;;;;;;;;;;;;;;;5071010;28;19948;-71
2022/11/28 05:12:56;;;;;;;;;;;8.30;99.90;;;;;;5058570;28;19986;-71
2022/11/28 05:15:22;;;;;;;;;;;8.30;99.90;;;;;;5056771;28;19908;-71
2022/11/28 05:17:47;;;;;;;;;;;;;;;;;;5060152;28;19917;-71
2022/11/28 05:20:13;;;;;;;;;;;8.30;99.90;;;;;;5058492;28;19909;-71
2022/11/28 05:22:39;;;;;;;;;;;;;;;;;;5066492;28;19908;-71
2022/11/28 05:25:05;;;;;;;;;;;8.30;99.90;;;;;;5070605;28;19944;-71
2022/11/28 05:27:31;;;;;;;;;;;;;;;;;;5069931;28;20254;-71
2022/11/28 05:29:56;;;;;;;;;;;8.20;99.90;;;;;;5063902;28;19944;-71
2022/11/28 05:32:21;;;;;;;;;;;8.30;99.90;;;;;;5065018;28;19908;-71
2022/11/28 05:34:47;;;;;;;;;;;8.30;99.90;;;;;;5071421;28;19908;-71
2022/11/28 05:37:12;;;;;;;;;;;8.20;99.90;;;;;;5069867;28;19920;-71
2022/11/28 05:39:38;;;;;;;;;;;8.30;99.90;;;;;;5061802;28;19989;-71
2022/11/28 05:42:03;;;;;;;;;;;8.30;99.90;;;;;;5065971;28;19942;-71
2022/11/28 05:44:29;;;;;;;;;;;8.30;99.90;;;;;;5070719;28;19913;-71
2022/11/28 05:46:55;;;;;;;;;;;;;;;;;;5068032;28;19928;-71
2022/11/28 05:49:20;;;;;;;;;;;8.30;99.90;;;;;;5070558;28;19917;-71
2022/11/28 05:51:47;;;;;;;;;;;8.30;99.90;;;;;;5069374;28;19908;-71
2022/11/28 05:54:12;;;;;;;;;;;8.30;99.90;;;;;;5070554;28;19908;-71
2022/11/28 05:56:38;;;;;;;;;;;;;;;;;;5069772;28;19919;-71
2022/11/28 05:59:03;;;;;;;;;;;8.30;99.90;;;;;;5070430;28;20014;-71
2022/11/28 06:01:29;;;;;;;;;;;8.20;99.90;;;;;;5070222;28;20272;-71
2022/11/28 06:03:59;;;;;;;;;;;;;;;;;;5070003;28;19916;-71
2022/11/28 06:06:25;;;;;;;;;;;;;;;;;;5070837;28;20023;-71
2022/11/28 06:08:51;;;;;;;;;;;8.30;99.90;;;;;;5069729;28;20387;-71
2022/11/28 06:11:17;;;;;;;;;;;;;;;;;;5056876;28;19909;-71
2022/11/28 06:13:43;;;;;;;;;;;8.30;99.90;;;;;;5055847;28;19916;-71
2022/11/28 06:16:10;;;;;;;;;;;8.30;99.90;;;;;;5048541;28;19909;-70
2022/11/28 06:18:36;;;;;;;;;;;;;;;;;;5065607;28;20285;-71
2022/11/28 06:21:02;;;;;;;;;;;8.30;99.90;;;;;;5062566;28;19909;-71
2022/11/28 06:23:28;;;;;;;;;;;;;;;;;;5065081;28;20353;-70
2022/11/28 06:25:53;;;;;;;;;;;8.30;99.90;;;;;;5062831;28;19909;-71
2022/11/28 06:28:18;;;;;;;;;;;8.30;99.90;;;;;;5065471;28;20349;-71
2022/11/28 06:30:44;;;;;;;;;;;;;;;;;;5062138;28;20293;-70
2022/11/28 06:33:10;;;;;;;;;;;;;;;;;;5077945;28;19908;-70
2022/11/28 06:35:36;;;;;;;;;;;;;;;;;;5074774;28;19908;-71
2022/11/28 06:38:01;;;;;;;;;;;8.30;99.90;;;;;;5069401;28;19924;-70
2022/11/28 06:40:27;;;;;;;;;;;;;;;;;;5056348;28;19909;-71
2022/11/28 06:42:53;;;;;;;;;;;8.40;99.90;;;;;;5069493;28;20014;-71
2022/11/28 06:45:18;;;;;;;;;;;8.30;99.90;;;;;;5069922;28;19915;-70
2022/11/28 06:47:44;;;;;;;;;;;;;;;;;;5072856;28;19912;-71
2022/11/28 06:50:10;;;;;;;;;;;8.40;99.90;;;;;;5081634;28;19912;-71
2022/11/28 06:52:36;;;;;;;;;;;;;;;;;;5066081;28;19999;-71
2022/11/28 06:55:01;;;;;;;;;;;8.40;99.90;;;;;;5073226;28;19908;-71
2022/11/28 06:57:27;;;;;;;;;;;;;;;;;;5073500;28;19924;-71
2022/11/28 06:59:52;;;;;;;;;;;8.30;99.90;;;;;;5072994;28;20381;-71
2022/11/28 07:02:18;;;;;;;;;;;8.30;99.90;;;;;;5073578;28;19909;-71
2022/11/28 07:04:44;;;;;;;;;;;;;;;;;;5076528;28;19916;-71
2022/11/28 07:07:09;;;;;;;;;;;8.40;99.90;;;;;;5081053;28;19956;-69
2022/11/28 07:09:35;;;;;;;;;;;;;;;;;;5072612;28;19908;-68
2022/11/28 07:12:00;;;;;;;;;;;8.40;99.90;;;;;;5072596;28;19912;-69
2022/11/28 07:14:26;;;;;;;;;;;8.40;99.90;;;;;;5072675;28;19971;-68
2022/11/28 07:16:52;;;;;;;;;;;8.40;99.90;;;;;;5072373;28;20014;-68
2022/11/28 07:19:21;;;;;;;;;;;;;;;;;;5072255;28;20419;-68
2022/11/28 07:21:47;;;;;;;;;;;8.40;99.90;;;;;;5072247;28;20315;-68
2022/11/28 07:24:13;;;;;;;;;;;;;;;;;;5072578;28;19908;-68
2022/11/28 07:26:39;;;;;;;;;;;8.40;99.90;;;;;;5072245;28;19974;-68
2022/11/28 07:29:06;;;;;;;;;;;8.40;99.90;;;;;;5072362;28;20281;-68
2022/11/28 07:31:32;;;;;;;;;;;8.30;99.90;;;;;;5072568;28;19908;-70
2022/11/28 07:33:59;;;;;;;;;;;8.40;99.90;;;;;;5074440;28;19969;-68
2022/11/28 07:36:26;;;;;;;;;;;8.40;99.90;;;;;;5079304;28;19916;-68
2022/11/28 07:38:52;;;;;;;;;;;;;;;;;;5069242;28;19920;-68
2022/11/28 07:41:18;;;;;;;;;;;8.40;99.90;;;;;;5061257;28;19909;-71
2022/11/28 07:43:44;;;;;;;;;;;;;;;;;;5071564;28;19916;-71
2022/11/28 07:46:11;;;;;;;;;;;8.40;99.90;;;;;;5072270;28;20545;-70
2022/11/28 07:48:36;;;;;;;;;;;8.40;99.90;;;;;;5071141;28;20369;-68
2022/11/28 07:51:05;;;;;;;;;;;8.50;99.90;;;;;;5071927;28;20019;-68
2022/11/28 07:53:31;;;;;;;;;;;8.40;99.90;;;;;;5072027;28;20498;-68
2022/11/28 07:55:59;;;;;;;;;;;8.40;99.90;;;;;;5071619;28;19909;-68
2022/11/28 07:58:25;;;;;;;;;;;;;;;;;;5075668;28;20276;-68
2022/11/28 08:00:51;;;;;;;;;;;8.40;99.90;;;;;;5088425;28;19919;-68
2022/11/28 08:03:16;;;;;;;;;;;;;;;;;;5071643;28;19909;-68
2022/11/28 08:05:48;;;;;;;;;;;8.50;99.90;;;;;;5088388;28;19912;-67
2022/11/28 08:08:17;;;;;;;;;;;8.40;99.90;;;;;;5071702;28;20032;-71
2022/11/28 08:10:43;;;;;;;;;;;;;;;;;;5073372;28;19916;-70
2022/11/28 08:13:08;;;;;;;;;;;8.50;99.90;;;;;;5076476;28;19908;-68
2022/11/28 08:15:34;;;;;;;;;;;;;;;;;;5070205;28;19913;-68
2022/11/28 08:18:00;;;;;;;;;;;8.50;99.90;;;;;;5070808;28;20245;-68
2022/11/28 08:20:26;;;;;;;;;;;;;;;;;;5071063;28;19908;-69
2022/11/28 08:22:51;;;;;;;;;;;8.50;99.90;;;;;;5070122;28;20007;-68
2022/11/28 08:25:17;;;;;;;;;;;;;;;;;;5071154;28;20319;-68
2022/11/28 08:27:43;;;;;;;;;;;8.60;99.90;;;;;;5068953;28;19915;-68
2022/11/28 08:30:09;;;;;;;;;;;;;;;;;;5066818;28;19912;-68
2022/11/28 08:32:34;;;;;;;;;;;8.50;99.90;;;;;;5068176;28;20012;-68
2022/11/28 08:35:00;;;;;;;;;;;8.50;99.90;;;;;;5065749;28;19912;-68
2022/11/28 08:37:26;;;;;;;;;;;8.60;99.90;;;;;;5069689;28;19964;-68
2022/11/28 08:39:52;;;;;;;;;;;;;;;;;;5067703;28;19935;-68
2022/11/28 08:42:18;;;;;;;;;;;8.70;99.90;;;;;;5069374;28;19913;-69
2022/11/28 08:44:43;;;;;;;;;;;;;;;;;;5052642;28;19957;-69
2022/11/28 08:47:09;;;;;;;;;;;;;;;;;;5070706;28;19915;-69
2022/11/28 08:49:35;;;;;;;;;;;8.60;99.90;;;;;;5086350;28;19912;-69
2022/11/28 08:52:01;;;;;;;;;;;8.70;99.90;;;;;;5071268;28;19908;-69
2022/11/28 08:54:27;;;;;;;;;;;8.70;99.90;;;;;;5068848;28;19919;-69
2022/11/28 08:56:52;;;;;;;;;;;8.60;99.90;;;;;;5076963;28;20234;-69
2022/11/28 08:59:18;;;;;;;;;;;;;;;;;;5070024;28;19917;-69
2022/11/28 09:01:44;;;;;;;;;;;;;;;;;;5068777;28;19920;-69
2022/11/28 09:04:09;;;;;;;;;;;8.70;99.90;;;;;;5073234;28;20164;-69
2022/11/28 09:06:37;;;;;;;;;;;8.70;99.90;;;;;;5070991;28;19919;-69
2022/11/28 09:09:03;;;;;;;;;;;;;;;;;;5074606;28;19979;-69
2022/11/28 09:11:28;;;;;;;;;;;8.70;99.90;;;;;;5070132;28;20373;-69
2022/11/28 09:13:54;;;;;;;;;;;;;;;;;;5069610;28;19912;-69
2022/11/28 09:16:20;;;;;;;;;;;;;;;;;;5067989;28;19908;-69
2022/11/28 09:18:46;;;;;;;;;;;;;;;;;;5068505;28;19924;-68
2022/11/28 09:21:13;;;;;;;;;;;8.80;99.90;;;;;;5069870;28;19909;-69
2022/11/28 09:23:39;;;;;;;;;;;;;;;;;;5069527;28;20292;-68
2022/11/28 09:26:15;;;;;;;;;;;8.70;99.90;;;;;;5083655;28;19912;-69
2022/11/28 09:28:41;;;;;;;;;;;8.80;99.90;;;;;;5064131;28;19943;-68
2022/11/28 09:31:07;;;;;;;;;;;;;;;;;;5074327;28;19927;-68
2022/11/28 09:33:33;;;;;;;;;;;;;;;;;;5084965;28;20418;-68
2022/11/28 09:35:59;;;;;;;;;;;;;;;;;;5068561;28;19940;-69
2022/11/28 09:38:24;;;;;;;;;;;8.90;99.90;;;;;;5068206;28;19928;-69
2022/11/28 09:40:50;;;;;;;;;;;;;;;;;;5056016;28;19912;-68
2022/11/28 09:43:45;;;;;;;;;;;8.90;99.90;;;;;;5069141;28;19912;-68
2022/11/28 09:46:14;;;;;;;;;;;9.00;99.90;;;;;;5049767;28;19912;-68
2022/11/28 09:48:50;;;;;;;;;;;9.00;99.90;;;;;;5067804;28;19909;-68
2022/11/28 09:51:31;;;;;;;;;;;9.00;99.90;;;;;;5069273;28;19962;-69
2022/11/28 09:53:56;;;;;;;;;;;9.00;99.90;;;;;;5068834;28;19912;-68
2022/11/28 09:56:23;;;;;;;;;;;;;;;;;;5068280;28;19909;-69
2022/11/28 09:58:50;;;;;;;;;;;9.10;99.90;;;;;;5067349;28;20581;-69
2022/11/28 10:01:40;;;;;;;;;;;9.10;99.90;;;;;;5069484;28;20592;-69
2022/11/28 10:04:06;;;;;;;;;;;;;;;;;;5069558;28;19916;-67
2022/11/28 10:06:41;;;;;;;;;;;9.20;99.90;;;;;;5068087;28;19912;-68
2022/11/28 10:09:06;;;;;;;;;;;;;;;;;;5068933;28;19909;-67
2022/11/28 10:11:32;;;;;;;;;;;;;;;;;;5068727;28;19915;-67
2022/11/28 10:13:58;;;;;;;;;;;;;;;;;;5068238;28;19923;-68
2022/11/28 10:16:24;;;;;;;;;;;;;;;;;;5067943;28;20389;-68
2022/11/28 10:18:50;;;;;;;;;;;;;;;;;;5068234;28;19928;-68
2022/11/28 10:21:34;;;;;;;;;;;9.20;99.90;;;;;;5068729;28;19909;-68
2022/11/28 10:23:59;;;;;;;;;;;;;;;;;;5073150;28;19963;-68
2022/11/28 10:26:25;;;;;;;;;;;;;;;;;;5072217;28;20346;-67
2022/11/28 10:28:52;;;;;;;;;;;9.20;99.90;;;;;;5072486;28;19912;-67
2022/11/28 10:31:19;;;;;;;;;;;9.30;99.90;;;;;;5072718;28;19908;-67
2022/11/28 10:33:48;;;;;;;;;;;9.30;99.90;;;;;;5072315;28;20385;-67
2022/11/28 10:36:15;;;;;;;;;;;;;;;;;;5070925;28;19919;-68
2022/11/28 10:38:40;;;;;;;;;;;;;;;;;;5068316;28;19921;-68
2022/11/28 10:41:27;;;;;;;;;;;9.40;99.90;;;;;;5069006;28;19955;-68
2022/11/28 10:43:58;;;;;;;;;;;9.40;99.90;;;;;;5068073;28;19938;-67
2022/11/28 10:46:36;;;;;;;;;;;9.40;99.90;;;;;;5086730;28;19951;-68
2022/11/28 10:49:21;;;;;;;;;;;9.40;99.90;;;;;;5072414;28;20254;-68
2022/11/28 10:51:46;;;;;;;;;;;;;;;;;;5070774;28;19920;-68
2022/11/28 10:54:12;;;;;;;;;;;;;;;;;;5076462;28;19912;-68
2022/11/28 10:56:38;;;;;;;;;;;;;;;;;;5070188;28;19954;-68
2022/11/28 10:59:11;;;;;;;;;;;9.50;99.90;;;;;;5070843;28;19924;-68
2022/11/28 11:01:38;;;;;;;;;;;9.50;99.90;;;;;;5071040;28;19987;-68
2022/11/28 11:04:04;;;;;;;;;;;;;;;;;;5070339;28;19915;-68
2022/11/28 11:06:29;;;;;;;;;;;;;;;;;;5067019;28;19912;-68
2022/11/28 11:08:55;;;;;;;;;;;;;;;;;;5072100;28;19941;-68
2022/11/28 11:11:29;;;;;;;;;;;9.70;99.90;;;;;;5074336;28;20007;-68
2022/11/28 11:14:05;;;;;;;;;;;9.70;99.90;;;;;;5069029;28;19912;-68
2022/11/28 11:16:30;;;;;;;;;;;;;;;;;;5076022;28;19912;-68
2022/11/28 11:18:56;;;;;;;;;;;9.80;99.90;;;;;;5069859;28;19928;-68
2022/11/28 11:21:25;;;;;;;;;;;9.80;99.90;;;;;;5072004;28;19973;-68
2022/11/28 11:24:10;;;;;;;;;;;9.90;99.90;;;;;;5071166;28;20377;-68
2022/11/28 11:26:38;;;;;;;;;;;9.90;99.90;;;;;;5061294;28;20019;-67
2022/11/28 11:29:04;;;;;;;;;;;9.90;99.90;;;;;;5071427;28;19908;-67
2022/11/28 11:31:30;;;;;;;;;;;;;;;;;;5071281;28;19947;-68
2022/11/28 11:34:06;;;;;;;;;;;9.80;99.90;;;;;;5071367;28;19909;-68
2022/11/28 11:36:33;;;;;;;;;;;9.80;99.90;;;;;;5066942;28;19971;-68
2022/11/28 11:39:05;;;;;;;;;;;9.80;99.90;;;;;;5066517;28;19920;-68
2022/11/28 11:41:31;;;;;;;;;;;9.80;99.90;;;;;;5074014;28;19924;-68
2022/11/28 11:43:57;;;;;;;;;;;;;;;;;;5071177;28;20287;-68
2022/11/28 11:46:23;;;;;;;;;;;9.80;99.90;;;;;;5066646;28;20270;-68
2022/11/28 11:48:50;;;;;;;;;;;9.80;99.90;;;;;;5070044;28;19915;-68
2022/11/28 11:51:23;;;;;;;;;;;9.80;99.90;;;;;;5071959;28;20375;-69
2022/11/28 11:53:59;;;;;;;;;;;9.80;99.90;;;;;;5070957;28;19937;-68
2022/11/28 11:56:24;;;;;;;;;;;9.80;99.90;;;;;;5070810;28;19920;-68
2022/11/28 11:58:51;;;;;;;;;;;9.90;99.90;;;;;;5085582;28;20285;-68
2022/11/28 12:01:18;;;;;;;;;;;9.90;99.90;;;;;;5086609;28;19915;-68
2022/11/28 12:03:44;;;;;;;;;;;;;;;;;;5086537;28;20042;-69
2022/11/28 12:06:12;;;;;;;;;;;9.80;99.90;;;;;;5070317;28;20016;-68
2022/11/28 12:08:37;;;;;;;;;;;;;;;;;;5070759;28;19909;-68
2022/11/28 12:11:03;;;;;;;;;;;;;;;;;;5069384;28;19915;-68
2022/11/28 12:13:29;;;;;;;;;;;;;;;;;;5079419;28;19916;-68
2022/11/28 12:15:59;;;;;;;;;;;9.90;99.90;;;;;;5068485;28;19919;-68
2022/11/28 12:18:25;;;;;;;;;;;;;;;;;;5072738;28;19924;-69
2022/11/28 12:21:09;;;;;;;;;;;9.90;99.90;;;;;;5069618;28;19919;-68
2022/11/28 12:23:35;;;;;;;;;;;;;;;;;;5085119;28;19991;-68
2022/11/28 12:26:05;;;;;;;;;;;9.90;99.90;;;;;;5068678;28;20010;-68
2022/11/28 12:28:37;;;;;;;;;;;9.90;99.90;;;;;;5085766;28;19954;-68
2022/11/28 12:31:08;;;;;;;;;;;9.90;99.90;;;;;;5073406;28;19916;-69
2022/11/28 12:33:48;;;;;;;;;;;9.80;99.90;;;;;;5078426;28;19912;-69
2022/11/28 12:36:18;;;;;;;;;;;9.90;99.90;;;;;;5069785;28;19916;-68
2022/11/28 12:38:53;;;;;;;;;;;9.90;99.90;;;;;;5069701;28;19925;-69
2022/11/28 12:41:19;;;;;;;;;;;;;;;;;;5070446;28;19932;-69
2022/11/28 12:43:45;;;;;;;;;;;;;;;;;;5083763;28;20489;-68
2022/11/28 12:46:11;;;;;;;;;;;;;;;;;;5069557;28;19908;-68
2022/11/28 12:48:53;;;;;;;;;;;10.00;99.90;;;;;;5085584;28;20408;-68
2022/11/28 12:51:19;;;;;;;;;;;;;;;;;;5070803;28;19944;-68
2022/11/28 12:53:45;;;;;;;;;;;;;;;;;;5083942;28;19951;-69
2022/11/28 12:56:11;;;;;;;;;;;10.00;99.90;;;;;;5079575;28;19908;-68
2022/11/28 12:58:36;;;;;;;;;;;;;;;;;;5071461;28;20257;-68
2022/11/28 13:01:05;;;;;;;;;;;10.00;99.90;;;;;;5070005;28;20284;-68
2022/11/28 13:03:31;;;;;;;;;;;;;;;;;;5069040;28;19909;-68
2022/11/28 13:05:56;;;;;;;;;;;;;;;;;;5069491;28;20234;-68
2022/11/28 13:08:25;;;;;;;;;;;10.00;99.90;;;;;;5069711;28;19919;-68
2022/11/28 13:10:51;;;;;;;;;;;;;;;;;;5069778;28;20273;-68
2022/11/28 13:13:23;;;;;;;;;;;10.50;99.90;;;;;;5066321;28;19912;-68
2022/11/28 13:15:53;;;;;;;;;;;10.10;99.90;;;;;;5061528;28;20027;-68
2022/11/28 13:18:19;;;;;;;;;;;;;;;;;;5065528;28;19916;-68
2022/11/28 13:20:46;;;;;;;;;;;10.00;99.90;;;;;;5061502;28;19939;-70
2022/11/28 13:23:12;;;;;;;;;;;;;;;;;;5062945;28;19916;-68
2022/11/28 13:25:38;;;;;;;;;;;;;;;;;;5056260;28;19913;-68
2022/11/28 13:28:06;;;;;;;;;;;10.00;99.90;;;;;;5063355;28;20014;-68
2022/11/28 13:30:35;;;;;;;;;;;10.00;99.90;;;;;;5058851;28;19909;-68
2022/11/28 13:33:04;;;;;;;;;;;10.10;99.90;;;;;;5051228;28;20018;-68
2022/11/28 13:35:30;;;;;;;;;;;;;;;;;;5063905;28;20007;-68
2022/11/28 13:37:56;;;;;;;;;;;;;;;;;;5063757;28;20011;-68
2022/11/28 13:40:21;;;;;;;;;;;;;;;;;;5050567;28;19913;-68
2022/11/28 13:43:04;;;;;;;;;;;10.10;99.90;;;;;;5061455;28;20413;-68
2022/11/28 13:45:30;;;;;;;;;;;;;;;;;;5054398;28;19912;-69
2022/11/28 13:47:56;;;;;;;;;;;10.00;99.90;;;;;;5057876;28;19913;-69
2022/11/28 13:50:22;;;;;;;;;;;;;;;;;;5070529;28;19908;-69
2022/11/28 13:52:47;;;;;;;;;;;;;;;;;;5068938;28;20442;-69
2022/11/28 13:55:32;;;;;;;;;;;10.10;99.90;;;;;;5068993;28;19920;-69
2022/11/28 13:57:57;;;;;;;;;;;10.10;99.90;;;;;;5075936;28;20336;-68
2022/11/28 14:00:23;;;;;;;;;;;;;;;;;;5040920;28;19912;-67
2022/11/28 14:02:51;;;;;;;;;;;10.10;99.90;;;;;;5068875;28;19908;-67
2022/11/28 14:05:23;;;;;;;;;;;10.10;99.90;;;;;;5068509;28;19915;-68
2022/11/28 14:07:48;;;;;;;;;;;10.10;99.90;;;;;;5071536;28;19913;-68
2022/11/28 14:10:23;;;;;;;;;;;10.10;99.90;;;;;;5071179;28;19965;-68
2022/11/28 14:13:07;;;;;;;;;;;10.00;99.90;;;;;;5074716;28;19919;-68
2022/11/28 14:15:52;;;;;;;;;;;10.00;99.90;;;;;;5085016;28;19912;-68
2022/11/28 14:18:35;;;;;;;;;;;10.10;99.90;;;;;;5073237;28;20369;-68
2022/11/28 14:21:07;;;;;;;;;;;10.10;99.90;;;;;;5069390;28;19944;-68
2022/11/28 14:23:33;;;;;;;;;;;;;;;;;;5069365;28;19992;-68
2022/11/28 14:25:59;;;;;;;;;;;10.10;99.90;;;;;;5069148;28;19948;-68
2022/11/28 14:28:27;;;;;;;;;;;10.10;99.90;;;;;;5069626;28;19913;-68
2022/11/28 14:31:00;;;;;;;;;;;10.10;99.90;;;;;;5068676;28;20357;-68
2022/11/28 14:33:31;;;;;;;;;;;10.10;99.90;;;;;;5069102;28;20238;-68
2022/11/28 14:35:57;;;;;;;;;;;10.10;99.90;;;;;;5068842;28;19916;-68
2022/11/28 14:38:23;;;;;;;;;;;;;;;;;;5069423;28;20400;-68
2022/11/28 14:40:54;;;;;;;;;;;10.10;99.90;;;;;;5068702;28;19909;-69
2022/11/28 14:43:23;;;;;;;;;;;10.00;99.90;;;;;;5069415;28;19908;-68
2022/11/28 14:45:50;;;;;;;;;;;10.00;99.90;;;;;;5068683;28;19915;-69
2022/11/28 14:48:22;;;;;;;;;;;10.00;99.90;;;;;;5068942;28;19999;-68
2022/11/28 14:50:49;;;;;;;;;;;10.00;99.90;;;;;;5055710;28;19985;-68
2022/11/28 14:53:15;;;;;;;;;;;;;;;;;;5073538;28;19920;-71
2022/11/28 14:55:40;;;;;;;;;;;;;;;;;;5071366;28;19913;-70
2022/11/28 14:58:14;;;;;;;;;;;10.00;99.90;;;;;;5071417;28;19983;-70
2022/11/28 15:00:53;;;;;;;;;;;10.00;99.90;;;;;;5068809;28;19919;-70
2022/11/28 15:03:22;;;;;;;;;;;10.00;99.90;;;;;;5068639;28;19915;-70
2022/11/28 15:05:48;;;;;;;;;;;;;;;;;;5076119;28;19994;-71
2022/11/28 15:08:35;;;;;;;;;;;10.00;99.90;;;;;;5071518;28;20353;-71
2022/11/28 15:11:01;;;;;;;;;;;;;;;;;;5084203;28;19919;-70
2022/11/28 15:13:27;;;;;;;;;;;;;;;;;;5070068;28;19908;-70
2022/11/28 15:15:53;;;;;;;;;;;;;;;;;;5070194;28;20003;-70
2022/11/28 15:18:19;;;;;;;;;;;;;;;;;;5087678;28;19916;-70
2022/11/28 15:20:46;;;;;;;;;;;;;;;;;;5084733;28;20402;-70
2022/11/28 15:23:27;;;;;;;;;;;10.00;99.90;;;;;;5065623;28;20352;-70